createdAt,value
2019-01-15T00:00:02.656Z,63.30
2019-01-15T00:03:06.557Z,25.00
2019-01-15T00:06:10.447Z,52.50
2019-01-15T00:09:14.326Z,25.33
2019-01-15T00:12:18.166Z,45.87
2019-01-15T00:15:22.224Z,54.23
2019-01-15T00:18:26.124Z,41.43
2019-01-15T00:21:30.003Z,28.10
2019-01-15T00:24:33.922Z,68.07
2019-01-15T00:27:37.793Z,47.07
2019-01-15T00:30:41.750Z,67.00
2019-01-15T00:33:45.917Z,69.67
2019-01-15T00:36:49.791Z,69.23
2019-01-15T00:39:53.685Z,61.97
2019-01-15T00:42:57.963Z,36.03
2019-01-15T00:46:02.248Z,34.67
2019-01-15T00:49:06.541Z,27.03
2019-01-15T00:52:10.521Z,19.93
2019-01-15T00:55:14.559Z,22.93
2019-01-15T00:58:18.888Z,22.03
2019-01-15T01:01:23.156Z,19.53
2019-01-15T01:04:27.122Z,21.27
2019-01-15T01:07:31.103Z,22.47
2019-01-15T01:10:35.404Z,20.27
2019-01-15T01:13:39.785Z,17.33
2019-01-15T01:16:43.732Z,17.00
2019-01-15T01:19:47.972Z,15.70
2019-01-15T01:22:52.730Z,17.27
2019-01-15T01:25:56.719Z,15.83
2019-01-15T01:29:01.718Z,18.70
2019-01-15T01:32:06.172Z,14.83
2019-01-15T01:35:10.268Z,15.53
2019-01-15T01:38:14.634Z,16.93
2019-01-15T01:41:18.628Z,21.53
2019-01-15T01:44:22.626Z,11.50
2019-01-15T01:47:26.467Z,12.00
2019-01-15T01:50:30.847Z,15.37
2019-01-15T01:53:34.849Z,17.63
2019-01-15T01:56:38.818Z,18.10
2019-01-15T01:59:42.831Z,24.90
2019-01-15T02:02:47.204Z,12.17
2019-01-15T02:05:51.256Z,10.73
2019-01-15T02:08:55.143Z,17.73
2019-01-15T02:11:58.941Z,17.73
2019-01-15T02:15:04.136Z,12.47
2019-01-15T02:18:08.504Z,17.03
2019-01-15T02:21:12.901Z,22.37
2019-01-15T02:24:17.138Z,12.33
2019-01-15T02:27:21.294Z,14.10
2019-01-15T02:30:26.947Z,17.87
2019-01-15T02:33:31.222Z,16.83
2019-01-15T02:36:35.590Z,15.67
2019-01-15T02:39:39.677Z,24.20
2019-01-15T02:42:46.858Z,18.53
2019-01-15T02:45:49.677Z,19.83
2019-01-15T02:48:53.990Z,17.87
2019-01-15T02:51:58.287Z,11.97
2019-01-15T02:55:02.283Z,24.03
2019-01-15T02:58:06.268Z,15.70
2019-01-15T03:01:10.323Z,16.17
2019-01-15T03:04:14.246Z,18.53
2019-01-15T03:07:18.056Z,14.50
2019-01-15T03:10:22.534Z,21.70
2019-01-15T03:13:26.404Z,16.67
2019-01-15T03:16:30.296Z,19.40
2019-01-15T03:19:34.185Z,17.73
2019-01-15T03:22:38.248Z,18.70
2019-01-15T03:25:42.125Z,36.83
2019-01-15T03:28:46.015Z,19.33
2019-01-15T03:31:49.913Z,22.03
2019-01-15T03:34:53.821Z,20.83
2019-01-15T03:37:57.683Z,25.33
2019-01-15T03:41:01.585Z,15.77
2019-01-15T03:44:05.844Z,23.17
2019-01-15T03:47:09.645Z,19.87
2019-01-15T03:50:13.729Z,16.77
2019-01-15T03:53:17.683Z,14.87
2019-01-15T03:56:21.559Z,20.10
2019-01-15T03:59:25.467Z,19.83
2019-01-15T04:02:29.530Z,23.00
2019-01-15T04:05:33.575Z,20.07
2019-01-15T04:08:37.551Z,14.90
2019-01-15T04:11:41.437Z,18.77
2019-01-15T04:14:45.339Z,12.53
2019-01-15T04:17:49.296Z,13.33
2019-01-15T04:20:53.413Z,23.07
2019-01-15T04:23:57.223Z,18.97
2019-01-15T04:27:01.133Z,17.20
2019-01-15T04:30:07.193Z,16.63
2019-01-15T04:33:11.147Z,15.73
2019-01-15T04:36:15.270Z,20.07
2019-01-15T04:39:19.074Z,16.60
2019-01-15T04:42:22.958Z,16.97
2019-01-15T04:45:27.033Z,25.40
2019-01-15T04:48:31.314Z,19.13
2019-01-15T04:51:35.282Z,25.57
2019-01-15T04:54:39.118Z,20.43
2019-01-15T04:57:43.125Z,20.23
2019-01-15T05:00:46.986Z,24.23
2019-01-15T05:03:50.805Z,22.37
2019-01-15T05:06:54.685Z,20.43
2019-01-15T05:09:58.752Z,31.83
2019-01-15T05:13:02.579Z,23.63
2019-01-15T05:16:06.472Z,23.70
2019-01-15T05:19:10.477Z,18.33
2019-01-15T05:22:14.458Z,27.90
2019-01-15T05:25:20.194Z,19.90
2019-01-15T05:28:23.996Z,27.60
2019-01-15T05:31:27.905Z,26.87
2019-01-15T05:34:31.899Z,23.37
2019-01-15T05:37:35.970Z,20.77
2019-01-15T05:40:39.895Z,31.60
2019-01-15T05:43:43.727Z,21.77
2019-01-15T05:46:47.740Z,23.70
2019-01-15T05:49:51.544Z,24.57
2019-01-15T05:52:55.475Z,24.80
2019-01-15T05:55:59.293Z,18.83
2019-01-15T05:59:03.273Z,27.60
2019-01-15T06:02:07.217Z,17.93
2019-01-15T06:05:11.538Z,25.63
2019-01-15T06:08:15.441Z,29.93
2019-01-15T06:11:19.441Z,24.70
2019-01-15T06:14:23.331Z,35.17
2019-01-15T06:17:27.168Z,23.53
2019-01-15T06:20:31.437Z,22.13
2019-01-15T06:23:35.354Z,21.77
2019-01-15T06:26:39.333Z,28.63
2019-01-15T06:29:43.325Z,28.87
2019-01-15T06:32:47.127Z,34.53
2019-01-15T06:35:51.127Z,37.77
2019-01-15T06:38:55.104Z,29.80
2019-01-15T06:41:59.203Z,30.80
2019-01-15T06:45:03.586Z,42.97
2019-01-15T06:48:07.659Z,26.50
2019-01-15T06:51:11.674Z,35.70
2019-01-15T06:54:16.042Z,36.17
2019-01-15T06:57:19.944Z,30.67
2019-01-15T07:00:26.214Z,26.07
2019-01-15T07:03:30.100Z,27.67
2019-01-15T07:06:34.516Z,34.20
2019-01-15T07:09:38.405Z,28.67
2019-01-15T07:12:42.960Z,33.20
2019-01-15T07:15:46.859Z,24.40
2019-01-15T07:18:50.741Z,24.13
2019-01-15T07:21:55.171Z,30.83
2019-01-15T07:24:59.058Z,27.23
2019-01-15T07:28:03.057Z,27.33
2019-01-15T07:31:07.029Z,32.60
2019-01-15T07:34:10.892Z,24.87
2019-01-15T07:37:14.826Z,27.30
2019-01-15T07:40:19.281Z,33.57
2019-01-15T07:43:23.171Z,32.23
2019-01-15T07:46:27.180Z,46.50
2019-01-15T07:49:30.977Z,31.13
2019-01-15T07:52:35.166Z,30.63
2019-01-15T07:55:39.166Z,26.57
2019-01-15T07:58:43.524Z,29.77
2019-01-15T08:01:47.943Z,29.03
2019-01-15T08:04:52.256Z,28.73
2019-01-15T08:07:56.671Z,27.80
2019-01-15T08:11:00.657Z,33.67
2019-01-15T08:14:11.873Z,27.10
2019-01-15T08:17:11.302Z,34.40
2019-01-15T08:20:15.571Z,31.23
2019-01-15T08:23:19.404Z,26.93
2019-01-15T08:26:23.378Z,26.67
2019-01-15T08:29:27.192Z,29.07
2019-01-15T08:32:31.027Z,29.83
2019-01-15T08:35:34.976Z,25.67
2019-01-15T08:38:38.806Z,29.77
2019-01-15T08:41:42.797Z,25.63
2019-01-15T08:44:46.746Z,29.33
2019-01-15T08:47:52.261Z,28.90
2019-01-15T08:50:56.440Z,28.10
2019-01-15T08:54:00.518Z,23.17
2019-01-15T08:57:06.267Z,37.47
2019-01-15T09:00:11.926Z,38.20
2019-01-15T09:03:15.811Z,28.60
2019-01-15T09:06:19.769Z,28.80
2019-01-15T09:09:23.723Z,34.57
2019-01-15T09:12:27.695Z,27.43
2019-01-15T09:15:31.786Z,35.83
2019-01-15T09:18:35.667Z,26.50
2019-01-15T09:21:39.551Z,37.30
2019-01-15T09:24:43.432Z,33.60
2019-01-15T09:27:47.487Z,23.30
2019-01-15T09:30:51.440Z,30.60
2019-01-15T09:33:55.335Z,34.80
2019-01-15T09:36:59.207Z,25.50
2019-01-15T09:40:03.182Z,27.43
2019-01-15T09:43:07.120Z,34.63
2019-01-15T09:46:11.093Z,20.13
2019-01-15T09:49:15.036Z,39.73
2019-01-15T09:52:20.514Z,35.97
2019-01-15T09:55:24.660Z,29.57
2019-01-15T09:58:28.624Z,36.80
2019-01-15T10:01:32.580Z,27.60
2019-01-15T10:04:36.367Z,32.17
2019-01-15T10:07:40.329Z,28.37
2019-01-15T10:10:44.297Z,28.23
2019-01-15T10:13:48.192Z,32.83
2019-01-15T10:16:52.090Z,33.43
2019-01-15T10:19:55.975Z,24.30
2019-01-15T10:22:59.850Z,18.83
2019-01-15T10:26:03.788Z,20.67
2019-01-15T10:29:07.694Z,25.70
2019-01-15T10:32:55.705Z,24.67
2019-01-15T10:35:59.210Z,24.10
2019-01-15T10:39:04.544Z,24.73
2019-01-15T10:42:08.482Z,33.67
2019-01-15T10:45:12.673Z,22.63
2019-01-15T10:48:16.487Z,19.80
2019-01-15T10:51:20.309Z,18.53
2019-01-15T10:54:24.190Z,19.90
2019-01-15T10:57:28.076Z,21.47
2019-01-15T11:00:32.548Z,24.20
2019-01-15T11:03:36.419Z,29.17
2019-01-15T11:06:40.379Z,34.73
2019-01-15T11:09:44.358Z,20.63
2019-01-15T11:12:48.221Z,23.50
2019-01-15T11:15:52.193Z,22.13
2019-01-15T11:18:56.235Z,19.87
2019-01-15T11:22:00.135Z,20.57
2019-01-15T11:25:05.542Z,28.63
2019-01-15T11:28:09.614Z,19.93
2019-01-15T11:31:13.585Z,23.67
2019-01-15T11:34:17.547Z,18.83
2019-01-15T11:37:21.961Z,19.70
2019-01-15T11:40:26.038Z,21.90
2019-01-15T11:43:29.926Z,23.37
2019-01-15T11:46:34.200Z,26.50
2019-01-15T11:49:38.032Z,31.47
2019-01-15T11:52:41.919Z,35.30
2019-01-15T11:55:45.729Z,25.17
2019-01-15T11:58:51.003Z,33.80
2019-01-15T12:02:04.838Z,40.23
2019-01-15T12:05:27.293Z,47.40
2019-01-15T12:08:59.763Z,50.17
2019-01-15T12:12:21.490Z,37.57
2019-01-15T12:15:39.782Z,30.90
2019-01-15T12:19:08.936Z,33.50
2019-01-15T12:22:28.379Z,37.13
2019-01-15T12:25:42.543Z,34.37
2019-01-15T12:29:08.960Z,39.80
2019-01-15T12:32:39.409Z,40.10
2019-01-15T12:35:55.786Z,42.70
2019-01-15T12:39:17.486Z,31.00
2019-01-15T12:42:49.575Z,34.17
2019-01-15T12:46:11.366Z,25.70
2019-01-15T12:49:34.201Z,26.07
2019-01-15T12:52:56.391Z,28.03
2019-01-15T12:56:34.233Z,25.53
2019-01-15T13:00:12.320Z,35.17
2019-01-15T13:03:44.421Z,30.13
2019-01-15T13:07:13.651Z,34.47
2019-01-15T13:10:36.724Z,36.10
2019-01-15T13:14:03.098Z,28.80
2019-01-15T13:17:38.336Z,16.13
2019-01-15T13:21:07.320Z,20.40
2019-01-15T13:24:29.102Z,15.50
2019-01-15T13:27:58.605Z,15.97
2019-01-15T13:31:20.477Z,13.33
2019-01-15T13:34:42.539Z,25.50
2019-01-15T13:38:14.798Z,12.47
2019-01-15T13:41:43.917Z,16.67
2019-01-15T13:45:03.293Z,19.23
2019-01-15T13:48:29.650Z,12.53
2019-01-15T13:51:58.665Z,19.80
2019-01-15T13:55:28.124Z,20.00
2019-01-15T13:58:50.673Z,21.53
2019-01-15T14:02:16.615Z,19.40
2019-01-15T14:05:44.113Z,18.00
2019-01-15T14:09:16.173Z,18.47
2019-01-15T14:12:33.284Z,26.73
2019-01-15T14:16:00.121Z,31.20
2019-01-15T14:19:22.497Z,30.67
2019-01-15T14:22:43.268Z,35.37
2019-01-15T14:26:04.990Z,37.10
2019-01-15T14:29:26.570Z,53.17
2019-01-15T14:32:52.158Z,64.40
2019-01-15T14:36:25.444Z,39.83
2019-01-15T14:39:47.367Z,47.83
2019-01-15T14:43:09.139Z,38.37
2019-01-15T14:46:29.196Z,38.40
2019-01-15T14:49:50.901Z,41.33
2019-01-15T14:53:16.662Z,45.33
2019-01-15T14:56:51.723Z,46.07
2019-01-15T15:00:30.209Z,39.33
2019-01-15T15:03:51.741Z,41.87
2019-01-15T15:07:23.888Z,57.00
2019-01-15T15:10:55.641Z,39.20
2019-01-15T15:14:25.200Z,32.83
2019-01-15T15:17:57.027Z,43.63
2019-01-15T15:21:20.927Z,34.50
2019-01-15T15:24:54.290Z,39.60
2019-01-15T15:28:26.603Z,40.30
2019-01-15T15:31:42.103Z,49.23
2019-01-15T15:35:02.372Z,36.47
2019-01-15T15:38:24.262Z,39.97
2019-01-15T15:41:56.513Z,49.47
2019-01-15T15:45:31.502Z,39.37
2019-01-15T15:48:54.327Z,44.00
2019-01-15T15:52:09.768Z,39.67
2019-01-15T15:55:25.026Z,44.00
2019-01-15T15:58:47.274Z,39.30
2019-01-15T16:02:03.774Z,47.40
2019-01-15T16:05:26.889Z,38.33
2019-01-15T16:09:08.404Z,36.23
2019-01-15T16:12:26.466Z,42.10
2019-01-15T16:15:52.505Z,41.20
2019-01-15T16:19:14.001Z,49.00
2019-01-15T16:22:54.966Z,53.30
2019-01-15T16:26:27.007Z,39.40
2019-01-15T16:29:50.955Z,39.27
2019-01-15T16:33:23.158Z,56.93
2019-01-15T16:36:49.417Z,203.87
2019-01-15T16:40:15.710Z,62.23
2019-01-15T16:43:38.810Z,64.00
2019-01-15T16:46:55.689Z,65.20
2019-01-15T16:50:11.804Z,123.50
2019-01-15T16:53:34.004Z,116.53
2019-01-15T16:56:52.772Z,51.67
2019-01-15T17:00:25.343Z,43.70
2019-01-15T17:03:47.184Z,26.80
2019-01-15T17:07:12.975Z,48.83
2019-01-15T17:10:34.860Z,38.63
2019-01-15T17:14:10.004Z,35.30
2019-01-15T17:17:20.874Z,47.37
2019-01-15T17:20:46.872Z,48.30
2019-01-15T17:24:01.138Z,33.80
2019-01-15T17:27:36.425Z,52.37
2019-01-15T17:30:56.297Z,42.87
2019-01-15T17:34:21.900Z,40.33
2019-01-15T17:37:43.613Z,42.93
2019-01-15T17:41:03.389Z,48.70
2019-01-15T17:44:26.325Z,48.87
2019-01-15T17:47:58.208Z,44.93
2019-01-15T17:51:21.060Z,41.63
2019-01-15T17:55:02.088Z,52.43
2019-01-15T17:58:24.240Z,53.20
2019-01-15T18:01:50.528Z,48.20
2019-01-15T18:05:12.374Z,36.13
2019-01-15T18:08:34.284Z,41.63
2019-01-15T18:11:56.337Z,48.50
2019-01-15T18:15:28.523Z,54.87
2019-01-15T18:18:57.261Z,60.13
2019-01-15T18:22:16.570Z,58.90
2019-01-15T18:25:40.540Z,46.60
2019-01-15T18:29:02.422Z,48.87
2019-01-15T18:32:25.442Z,61.00
2019-01-15T18:35:54.228Z,53.47
2019-01-15T18:39:14.087Z,43.57
2019-01-15T18:42:34.827Z,62.93
2019-01-15T18:45:55.505Z,58.50
2019-01-15T18:49:17.967Z,48.90
2019-01-15T18:52:39.790Z,42.00
2019-01-15T18:56:00.330Z,35.60
2019-01-15T18:59:22.858Z,34.47
2019-01-15T19:02:48.647Z,42.87
2019-01-15T19:06:12.059Z,39.00
2019-01-15T19:09:40.777Z,39.70
2019-01-15T19:13:03.677Z,43.80
2019-01-15T19:16:30.297Z,50.90
2019-01-15T19:19:51.973Z,44.87
2019-01-15T19:23:13.560Z,49.67
2019-01-15T19:26:51.883Z,33.50
2019-01-15T19:30:20.689Z,31.77
2019-01-15T19:33:44.675Z,33.23
2019-01-15T19:37:16.957Z,19.07
2019-01-15T19:40:58.065Z,30.23
2019-01-15T19:44:23.832Z,26.77
2019-01-15T19:47:49.839Z,26.57
2019-01-15T19:51:03.101Z,21.27
2019-01-15T19:54:35.109Z,22.33
2019-01-15T19:57:58.039Z,28.43
2019-01-15T20:01:19.379Z,25.60
2019-01-15T20:04:45.619Z,12.20
2019-01-15T20:07:58.220Z,16.23
2019-01-15T20:11:19.869Z,17.30
2019-01-15T20:14:36.993Z,14.70
2019-01-15T20:17:53.667Z,12.40
2019-01-15T20:21:11.621Z,10.47
2019-01-15T20:24:40.627Z,7.50
2019-01-15T20:28:12.744Z,8.40
2019-01-15T20:31:41.859Z,11.73
2019-01-15T20:35:03.662Z,10.20
2019-01-15T20:38:32.606Z,11.57
2019-01-15T20:41:54.419Z,13.47
2019-01-15T20:45:16.042Z,17.63
2019-01-15T20:48:44.918Z,29.87
2019-01-15T20:52:13.691Z,33.90
2019-01-15T20:55:32.207Z,31.83
2019-01-15T20:58:58.226Z,33.47
2019-01-15T21:02:33.394Z,28.80
2019-01-15T21:05:46.961Z,41.13
2019-01-15T21:09:09.250Z,43.37
2019-01-15T21:12:29.768Z,54.87
2019-01-15T21:15:52.643Z,54.87
2019-01-15T21:19:21.432Z,49.73
2019-01-15T21:22:35.967Z,57.83
2019-01-15T21:26:08.167Z,59.63
2019-01-15T21:29:26.818Z,52.90
2019-01-15T21:32:48.546Z,59.80
2019-01-15T21:36:10.355Z,32.70
2019-01-15T21:39:42.496Z,44.33
2019-01-15T21:43:17.608Z,52.63
2019-01-15T21:46:39.188Z,40.67
2019-01-15T21:50:00.944Z,47.20
2019-01-15T21:53:29.831Z,48.10
2019-01-15T21:57:11.141Z,42.37
2019-01-15T22:00:24.951Z,37.73
2019-01-15T22:03:47.938Z,50.80
2019-01-15T22:07:11.459Z,59.63
2019-01-15T22:10:33.011Z,60.00
2019-01-15T22:13:56.426Z,64.77
2019-01-15T22:17:18.213Z,44.57
2019-01-15T22:20:40.071Z,55.60
2019-01-15T22:24:08.918Z,66.70
2019-01-15T22:27:31.882Z,72.80
2019-01-15T22:30:53.987Z,46.53
2019-01-15T22:34:17.273Z,35.00
2019-01-15T22:37:28.996Z,35.10
2019-01-15T22:40:37.995Z,33.63
2019-01-15T22:43:50.412Z,36.97
2019-01-15T22:47:16.974Z,37.17
2019-01-15T22:50:53.847Z,36.70
2019-01-15T22:54:18.915Z,29.13
2019-01-15T22:57:44.693Z,35.53
2019-01-15T23:01:06.783Z,38.73
2019-01-15T23:04:29.904Z,36.57
2019-01-15T23:07:56.605Z,38.90
2019-01-15T23:11:31.965Z,32.93
2019-01-15T23:14:54.916Z,32.63
2019-01-15T23:18:23.731Z,42.10
2019-01-15T23:21:38.675Z,43.10
2019-01-15T23:24:51.196Z,36.83
2019-01-15T23:28:20.140Z,35.23
2019-01-15T23:31:41.912Z,43.73
2019-01-15T23:35:11.122Z,38.30
2019-01-15T23:38:49.460Z,48.60
2019-01-15T23:42:11.109Z,26.07
2019-01-15T23:45:32.907Z,48.40
2019-01-15T23:49:01.926Z,34.10
2019-01-15T23:52:33.550Z,37.23
2019-01-15T23:56:08.795Z,36.73
2019-01-15T23:59:27.779Z,41.47
